Huvudsida
METAR-TAF:

METAR-TAF

Flygplatser :

Chumphon, Thailand

latitud: 10-42-40N, longitud: 099-21-42E, höjd: 5 m

Aktuellt väderrapport

Denna rapport gjordes för 10 timmar och 32 minuter sedan, klockan 11:00 UTC
Vind 5 kt från ost
Temperatur 29°C
Fuktighet 74%
Tryck 1011 hPa
Sikt 10 km eller mer
Få moln på en höjd av 2000 ft

METAR: VTSE 221100Z 10005KT 9999 FEW020 29/24 Q1011 NOSIG

Tid: 04:32 (21:32 UTC)

Väderprognos

Denna rapport gjordes för 4 timmar och 32 minuter sedan, klockan 17:00 UTC
Prognos gäller från 22 kl. 18 UTC till 23 kl. 18 UTC
Vind kt från nord
Sikt 10 km eller mer
Få moln på en höjd av 2000 ft
Blir
från 23 kl. 04 UTC till 23 kl. 06 UTC
Vind 8 kt från ost/sydost
Blir
från 23 kl. 15 UTC till 23 kl. 17 UTC
Vind kt från nord

TAF: VTSE 221700Z 2218/2318 00000KT 9999 FEW020 BECMG 2304/2306 12008KT BECMG 2315/2317 00000KT

Aktuella väderrapporter och prognoser från 4000 flygplatser (METAR- och TAF-rapporter).

De tillgängliga stationerna syns som gula och röda prickar på kartan.

För musen över prickarna för att se namnen på stationerna.

Klicka sedan för att få väderrapporter och prognoser.

För att ändra kartan: Klicka på de gröna knapparna med ett svart kors på för att zooma in; den gröna knappen med ett streck på för att zooma ut; eller på de gröna pilarna för angränsande kartor.


METAR-TAF: